createdAt,value
2023-06-16T00:01:10.231Z,67.76
2023-06-16T00:03:37.248Z,67.63
2023-06-16T00:06:06.119Z,67.80
2023-06-16T00:08:33.053Z,67.15
2023-06-16T00:11:00.487Z,66.97
2023-06-16T00:13:27.412Z,66.89
2023-06-16T00:15:55.697Z,66.75
2023-06-16T00:18:22.968Z,66.46
2023-06-16T00:20:49.893Z,65.96
2023-06-16T00:23:20.677Z,65.69
2023-06-16T00:25:48.815Z,65.63
2023-06-16T00:28:15.732Z,64.84
2023-06-16T00:30:44.132Z,65.05
2023-06-16T00:33:12.576Z,65.59
2023-06-16T00:35:39.845Z,65.82
2023-06-16T00:38:06.824Z,65.93
2023-06-16T00:40:33.858Z,65.79
2023-06-16T00:43:00.878Z,65.62
2023-06-16T00:45:29.820Z,65.12
2023-06-16T00:47:57.664Z,65.18
2023-06-16T00:50:28.103Z,65.09
2023-06-16T00:52:56.440Z,64.53
2023-06-16T00:55:23.839Z,64.21
2023-06-16T00:57:52.002Z,64.14
2023-06-16T01:00:20.261Z,64.24
2023-06-16T01:02:50.561Z,66.23
2023-06-16T01:05:25.481Z,66.34
2023-06-16T01:08:07.860Z,65.81
2023-06-16T01:10:46.048Z,64.67
2023-06-16T01:13:25.461Z,64.10
2023-06-16T01:15:54.217Z,65.02
2023-06-16T01:18:25.178Z,65.61
2023-06-16T01:21:00.756Z,66.33
2023-06-16T01:23:45.269Z,65.88
2023-06-16T01:26:14.612Z,66.00
2023-06-16T01:28:43.874Z,65.69
2023-06-16T01:31:13.889Z,65.03
2023-06-16T01:33:43.070Z,64.60
2023-06-16T01:36:10.722Z,66.13
2023-06-16T01:38:39.762Z,67.12
2023-06-16T01:41:07.922Z,67.16
2023-06-16T01:43:37.193Z,67.12
2023-06-16T01:46:05.714Z,66.76
2023-06-16T01:48:33.531Z,66.23
2023-06-16T01:51:03.031Z,66.63
2023-06-16T01:53:30.027Z,66.87
2023-06-16T01:55:57.187Z,69.19
2023-06-16T01:58:27.019Z,71.55
2023-06-16T02:01:24.752Z,71.43
2023-06-16T02:04:00.146Z,69.50
2023-06-16T02:06:33.261Z,68.07
2023-06-16T02:09:05.718Z,69.00
2023-06-16T02:11:34.362Z,68.38
2023-06-16T02:14:02.753Z,68.02
2023-06-16T02:16:36.860Z,67.71
2023-06-16T02:19:03.962Z,66.94
2023-06-16T02:21:31.200Z,66.51
2023-06-16T02:23:58.205Z,65.76
2023-06-16T02:26:25.411Z,66.07
2023-06-16T02:28:52.852Z,65.97
2023-06-16T02:31:20.159Z,65.99
2023-06-16T02:33:51.433Z,65.18
2023-06-16T02:36:18.431Z,66.37
2023-06-16T02:38:45.558Z,66.31
2023-06-16T02:41:12.554Z,66.46
2023-06-16T02:43:39.539Z,66.56
2023-06-16T02:46:07.888Z,66.84
2023-06-16T02:48:35.185Z,67.42
2023-06-16T02:51:03.610Z,67.75
2023-06-16T02:53:30.711Z,67.62
2023-06-16T02:56:00.739Z,68.24
2023-06-16T02:58:30.074Z,68.78
2023-06-16T03:00:56.998Z,69.21
2023-06-16T03:03:53.007Z,69.58
2023-06-16T03:06:30.332Z,69.83
2023-06-16T03:09:54.844Z,69.33
2023-06-16T03:12:29.845Z,69.36
2023-06-16T03:15:14.028Z,68.58
2023-06-16T03:17:48.770Z,68.46
2023-06-16T03:20:34.410Z,68.08
2023-06-16T03:23:43.638Z,68.33
2023-06-16T03:26:12.054Z,68.68
2023-06-16T03:28:58.229Z,69.29
2023-06-16T03:31:27.502Z,69.27
2023-06-16T03:33:56.798Z,68.66
2023-06-16T03:36:27.717Z,68.59
2023-06-16T03:38:56.171Z,68.46
2023-06-16T03:41:23.704Z,68.27
2023-06-16T03:43:50.861Z,70.17
2023-06-16T03:46:18.306Z,69.81
2023-06-16T03:48:45.934Z,69.97
2023-06-16T03:51:12.986Z,69.88
2023-06-16T03:53:40.489Z,68.88
2023-06-16T03:56:09.569Z,68.89
2023-06-16T03:58:37.622Z,68.57
2023-06-16T04:01:05.010Z,68.58
2023-06-16T04:03:34.931Z,67.67
2023-06-16T04:06:03.800Z,66.48
2023-06-16T04:08:31.343Z,65.03
2023-06-16T04:10:58.298Z,63.01
2023-06-16T04:13:27.782Z,62.24
2023-06-16T04:15:54.679Z,60.92
2023-06-16T04:18:21.648Z,62.42
2023-06-16T04:20:48.666Z,62.02
2023-06-16T04:23:16.716Z,61.39
2023-06-16T04:25:43.839Z,62.17
2023-06-16T04:28:10.760Z,61.21
2023-06-16T04:30:39.357Z,60.31
2023-06-16T04:33:06.758Z,59.41
2023-06-16T04:35:35.069Z,58.00
2023-06-16T04:38:03.949Z,60.38
2023-06-16T04:40:32.634Z,60.75
2023-06-16T04:42:59.817Z,60.16
2023-06-16T04:45:28.263Z,61.56
2023-06-16T04:47:56.704Z,60.01
2023-06-16T04:50:24.026Z,59.73
2023-06-16T04:52:51.633Z,59.85
2023-06-16T04:55:19.921Z,60.19
2023-06-16T04:57:46.935Z,61.17
2023-06-16T05:00:15.050Z,60.42
2023-06-16T05:02:43.114Z,59.50
2023-06-16T05:05:11.520Z,58.65
2023-06-16T05:07:38.683Z,58.48
2023-06-16T05:10:09.231Z,57.67
2023-06-16T05:12:37.598Z,58.78
2023-06-16T05:15:06.837Z,56.89
2023-06-16T05:17:35.041Z,56.12
2023-06-16T05:20:02.172Z,54.77
2023-06-16T05:22:31.603Z,53.74
2023-06-16T05:24:58.656Z,52.74
2023-06-16T05:27:26.164Z,53.22
2023-06-16T05:29:59.331Z,52.84
2023-06-16T05:32:31.726Z,51.57
2023-06-16T05:35:00.383Z,50.42
2023-06-16T05:37:28.875Z,48.85
2023-06-16T05:39:57.335Z,46.97
2023-06-16T05:42:25.271Z,44.88
2023-06-16T05:44:53.102Z,45.27
2023-06-16T05:47:20.592Z,43.03
2023-06-16T05:49:49.348Z,42.75
2023-06-16T05:52:17.146Z,41.76
2023-06-16T05:54:44.788Z,41.90
2023-06-16T05:57:19.946Z,42.91
2023-06-16T05:59:47.084Z,46.18
2023-06-16T06:02:14.185Z,43.11
2023-06-16T06:04:43.871Z,40.51
2023-06-16T06:07:12.557Z,38.89
2023-06-16T06:09:40.064Z,40.67
2023-06-16T06:12:09.794Z,38.15
2023-06-16T06:14:39.651Z,36.28
2023-06-16T06:17:07.359Z,37.40
2023-06-16T06:19:34.401Z,36.34
2023-06-16T06:22:03.445Z,35.11
2023-06-16T06:24:31.114Z,34.14
2023-06-16T06:26:59.908Z,33.04
2023-06-16T06:29:27.112Z,31.69
2023-06-16T06:31:55.386Z,30.76
2023-06-16T06:34:22.638Z,30.60
2023-06-16T06:36:49.824Z,30.56
2023-06-16T06:39:18.422Z,30.35
2023-06-16T06:41:49.629Z,30.37
2023-06-16T06:44:22.446Z,30.53
2023-06-16T06:46:50.518Z,29.44
2023-06-16T06:49:20.219Z,30.13
2023-06-16T06:51:47.153Z,29.81
2023-06-16T06:54:16.756Z,30.37
2023-06-16T06:56:43.702Z,30.45
2023-06-16T06:59:10.793Z,31.36
2023-06-16T07:01:39.036Z,32.39
2023-06-16T07:04:08.282Z,34.27
2023-06-16T07:06:36.912Z,34.28
2023-06-16T07:09:04.100Z,33.52
2023-06-16T07:11:31.026Z,34.59
2023-06-16T07:13:58.560Z,34.41
2023-06-16T07:16:25.568Z,33.18
2023-06-16T07:18:52.618Z,34.29
2023-06-16T07:21:20.006Z,35.12
2023-06-16T07:23:48.319Z,33.47
2023-06-16T07:26:15.280Z,33.07
2023-06-16T07:28:42.177Z,33.09
2023-06-16T07:31:09.106Z,35.48
2023-06-16T07:33:35.989Z,35.37
2023-06-16T07:36:03.863Z,34.28
2023-06-16T07:38:30.827Z,33.67
2023-06-16T07:40:59.325Z,31.42
2023-06-16T07:43:26.300Z,31.82
2023-06-16T07:45:53.343Z,31.73
2023-06-16T07:48:20.279Z,33.56
2023-06-16T07:50:47.358Z,34.98
2023-06-16T07:53:14.379Z,32.66
2023-06-16T07:55:41.556Z,35.46
2023-06-16T07:58:09.933Z,32.51
2023-06-16T08:00:37.166Z,33.33
2023-06-16T08:03:04.416Z,34.54
2023-06-16T08:05:31.397Z,37.04
2023-06-16T08:07:58.384Z,36.28
2023-06-16T08:10:25.353Z,36.34
2023-06-16T08:12:52.362Z,35.29
2023-06-16T08:15:21.110Z,36.24
2023-06-16T08:17:48.286Z,35.85
2023-06-16T08:20:15.338Z,36.63
2023-06-16T08:22:42.190Z,37.33
2023-06-16T08:25:10.434Z,35.11
2023-06-16T08:27:40.334Z,33.69
2023-06-16T08:30:08.543Z,33.97
2023-06-16T08:32:38.628Z,33.18
2023-06-16T08:35:07.339Z,34.34
2023-06-16T08:37:34.167Z,31.69
2023-06-16T08:40:01.155Z,31.77
2023-06-16T08:42:31.590Z,31.87
2023-06-16T08:45:01.318Z,31.09
2023-06-16T08:47:28.372Z,30.94
2023-06-16T08:49:56.917Z,30.94
2023-06-16T08:52:34.805Z,31.62
2023-06-16T08:55:13.344Z,31.60
2023-06-16T08:57:45.651Z,32.93
2023-06-16T09:00:13.900Z,31.72
2023-06-16T09:02:42.969Z,30.06
2023-06-16T09:05:13.362Z,28.53
2023-06-16T09:07:40.414Z,28.38
2023-06-16T09:10:08.896Z,28.27
2023-06-16T09:13:34.121Z,25.16
2023-06-16T09:16:01.548Z,25.99
2023-06-16T09:18:37.706Z,24.19
2023-06-16T09:21:07.795Z,24.21
2023-06-16T09:23:35.163Z,24.88
2023-06-16T09:26:10.443Z,24.45
2023-06-16T09:28:37.874Z,25.65
2023-06-16T09:31:12.383Z,25.59
2023-06-16T09:33:40.264Z,24.54
2023-06-16T09:36:09.640Z,24.07
2023-06-16T09:38:37.803Z,23.60
2023-06-16T09:41:09.191Z,24.08
2023-06-16T09:43:38.469Z,23.50
2023-06-16T09:46:09.492Z,24.73
2023-06-16T09:48:46.264Z,23.13
2023-06-16T09:51:17.872Z,23.39
2023-06-16T09:53:45.649Z,24.33
2023-06-16T09:56:15.076Z,23.35
2023-06-16T09:58:42.944Z,24.11
2023-06-16T10:01:11.105Z,23.20
2023-06-16T10:03:39.314Z,23.61
2023-06-16T10:06:16.711Z,24.40
2023-06-16T10:08:48.704Z,23.64
2023-06-16T10:11:17.569Z,23.74
2023-06-16T10:13:51.335Z,23.50
2023-06-16T10:16:24.574Z,23.48
2023-06-16T10:18:55.187Z,23.19
2023-06-16T10:21:23.642Z,22.82
2023-06-16T10:23:52.965Z,24.13
2023-06-16T10:26:21.324Z,22.41
2023-06-16T10:28:49.813Z,21.89
2023-06-16T10:31:16.891Z,21.20
2023-06-16T10:33:54.075Z,21.23
2023-06-16T10:36:24.515Z,21.27
2023-06-16T10:39:02.605Z,21.47
2023-06-16T10:41:30.478Z,22.03
2023-06-16T10:44:17.754Z,21.00
2023-06-16T10:46:45.066Z,20.76
2023-06-16T10:49:13.293Z,19.69
2023-06-16T10:51:45.852Z,20.26
2023-06-16T10:54:34.939Z,20.27
2023-06-16T11:00:02.686Z,20.38
2023-06-16T11:02:34.354Z,20.67
2023-06-16T11:05:15.792Z,20.45
2023-06-16T11:07:44.934Z,21.05
2023-06-16T11:10:19.701Z,20.23
2023-06-16T11:12:48.314Z,20.32
2023-06-16T11:15:15.611Z,21.18
2023-06-16T11:17:44.098Z,22.64
2023-06-16T11:20:13.159Z,21.75
2023-06-16T11:22:41.341Z,21.71
2023-06-16T11:25:09.225Z,20.97
2023-06-16T11:27:38.906Z,21.92
2023-06-16T11:30:07.638Z,22.32
2023-06-16T11:32:36.091Z,23.02
2023-06-16T11:35:05.484Z,22.34
2023-06-16T11:37:47.360Z,23.13
2023-06-16T11:40:19.575Z,22.99
2023-06-16T11:42:56.107Z,22.73
2023-06-16T11:45:23.872Z,23.14
2023-06-16T11:47:51.676Z,22.83
2023-06-16T11:50:20.357Z,23.13
2023-06-16T11:52:48.513Z,24.28
2023-06-16T11:55:15.626Z,24.44
2023-06-16T11:57:42.742Z,24.76
2023-06-16T12:00:13.879Z,24.47
2023-06-16T12:02:46.715Z,23.95
2023-06-16T12:05:24.215Z,22.93
2023-06-16T12:07:51.319Z,23.75
2023-06-16T12:10:19.153Z,24.35
2023-06-16T12:12:47.512Z,24.85
2023-06-16T12:15:18.123Z,23.98
2023-06-16T12:17:46.124Z,23.55
2023-06-16T12:20:14.885Z,25.42
2023-06-16T12:22:42.018Z,24.42
2023-06-16T12:25:13.757Z,25.52
2023-06-16T12:27:44.938Z,26.10
2023-06-16T12:30:13.782Z,25.32
2023-06-16T12:32:43.628Z,25.65
2023-06-16T12:35:11.038Z,26.05
2023-06-16T12:37:41.389Z,26.04
2023-06-16T12:40:11.369Z,25.28
2023-06-16T12:42:41.385Z,25.89
2023-06-16T12:45:10.532Z,25.57
2023-06-16T12:47:39.165Z,25.48
2023-06-16T12:50:09.776Z,25.08
2023-06-16T12:52:36.982Z,25.70
2023-06-16T12:55:05.139Z,25.55
2023-06-16T12:57:34.496Z,24.00
2023-06-16T13:00:01.811Z,24.62
2023-06-16T13:02:29.867Z,25.35
2023-06-16T13:04:57.817Z,24.71
2023-06-16T13:10:23.834Z,24.83
2023-06-16T13:12:50.888Z,24.84
2023-06-16T13:15:17.955Z,24.07
2023-06-16T13:17:45.341Z,25.33
2023-06-16T13:20:13.316Z,25.67
2023-06-16T13:22:40.281Z,25.60
2023-06-16T13:25:07.895Z,25.59
2023-06-16T13:27:36.412Z,25.04
2023-06-16T13:30:03.752Z,26.05
2023-06-16T13:32:31.144Z,25.52
2023-06-16T13:34:58.067Z,25.34
2023-06-16T13:37:24.956Z,25.11
2023-06-16T13:39:51.938Z,25.37
2023-06-16T13:42:18.895Z,24.55
2023-06-16T13:44:47.328Z,24.59
2023-06-16T13:47:14.321Z,23.99
2023-06-16T13:49:41.338Z,24.28
2023-06-16T13:52:09.145Z,24.49
2023-06-16T13:54:36.898Z,24.75
2023-06-16T13:57:04.485Z,23.93
2023-06-16T13:59:31.369Z,24.83
2023-06-16T14:02:01.213Z,24.07
2023-06-16T14:04:28.657Z,24.64
2023-06-16T14:06:57.609Z,24.17
2023-06-16T14:09:25.005Z,24.40
2023-06-16T14:11:52.177Z,24.63
2023-06-16T14:14:19.084Z,24.36
2023-06-16T14:16:47.038Z,24.64
2023-06-16T14:19:15.517Z,23.68
2023-06-16T14:21:42.878Z,24.16
2023-06-16T14:24:09.897Z,23.60
2023-06-16T14:26:37.667Z,24.86
2023-06-16T14:29:04.553Z,24.52
2023-06-16T14:31:31.480Z,23.76
2023-06-16T14:33:58.376Z,23.99
2023-06-16T14:36:26.646Z,23.82
2023-06-16T14:38:53.792Z,23.66
2023-06-16T14:41:21.012Z,24.17
2023-06-16T14:43:48.326Z,23.92
2023-06-16T14:46:15.406Z,23.66
2023-06-16T14:48:43.476Z,23.89
2023-06-16T14:51:10.504Z,24.67
2023-06-16T14:53:38.889Z,24.19
2023-06-16T14:56:06.898Z,24.43
2023-06-16T14:58:33.963Z,24.23
2023-06-16T15:01:00.898Z,24.65
2023-06-16T15:03:27.984Z,24.53
2023-06-16T15:05:55.225Z,25.89
2023-06-16T15:08:22.177Z,25.32
2023-06-16T15:10:50.516Z,25.06
2023-06-16T15:13:18.045Z,25.41
2023-06-16T15:15:45.287Z,25.53
2023-06-16T15:18:12.259Z,25.76
2023-06-16T15:20:39.200Z,25.78
2023-06-16T15:23:06.129Z,25.47
2023-06-16T15:25:33.963Z,24.91
2023-06-16T15:28:11.606Z,25.26
2023-06-16T15:30:40.560Z,25.25
2023-06-16T15:33:07.946Z,24.65
2023-06-16T15:35:34.999Z,24.81
2023-06-16T15:38:01.915Z,25.32
2023-06-16T15:40:28.745Z,25.71
2023-06-16T15:43:04.583Z,25.23
2023-06-16T15:45:31.626Z,26.26
2023-06-16T15:47:58.633Z,25.99
2023-06-16T15:50:27.302Z,26.10
2023-06-16T15:52:54.437Z,25.81
2023-06-16T15:55:21.394Z,25.83
2023-06-16T15:57:48.338Z,26.47
2023-06-16T16:00:17.374Z,26.48
2023-06-16T16:02:45.263Z,26.30
2023-06-16T16:05:12.349Z,26.02
2023-06-16T16:08:14.324Z,25.48
2023-06-16T16:10:41.528Z,25.99
2023-06-16T16:13:09.109Z,26.14
2023-06-16T16:15:37.639Z,25.90
2023-06-16T16:18:05.116Z,25.58
2023-06-16T16:20:32.200Z,25.54
2023-06-16T16:22:59.198Z,25.76
2023-06-16T16:25:26.848Z,25.56
2023-06-16T16:27:55.117Z,24.77
2023-06-16T16:30:22.726Z,25.27
2023-06-16T16:32:51.351Z,25.39
2023-06-16T16:35:19.871Z,24.54
2023-06-16T16:37:47.370Z,25.05
2023-06-16T16:40:15.419Z,25.50
2023-06-16T16:42:43.219Z,25.58
2023-06-16T16:45:11.355Z,25.04
2023-06-16T16:47:38.598Z,24.90
2023-06-16T16:50:08.419Z,24.94
2023-06-16T16:52:35.860Z,24.72
2023-06-16T16:55:04.285Z,24.83
2023-06-16T16:57:31.461Z,25.23
2023-06-16T16:59:58.522Z,25.18
2023-06-16T17:02:26.030Z,24.81
2023-06-16T17:04:53.352Z,25.29
2023-06-16T17:07:21.837Z,26.15
2023-06-16T17:09:49.152Z,26.38
2023-06-16T17:12:16.170Z,27.54
2023-06-16T17:14:44.464Z,28.54
2023-06-16T17:17:12.172Z,29.13
2023-06-16T17:19:39.077Z,28.87
2023-06-16T17:22:06.911Z,29.02
2023-06-16T17:24:35.329Z,29.24
2023-06-16T17:27:02.332Z,29.35
2023-06-16T17:29:29.254Z,29.36
2023-06-16T17:31:56.177Z,29.78
2023-06-16T17:34:23.379Z,29.94
2023-06-16T17:36:50.308Z,30.19
2023-06-16T17:39:18.036Z,29.59
2023-06-16T17:41:46.988Z,29.95
2023-06-16T17:44:16.907Z,29.73
2023-06-16T17:46:44.009Z,29.93
2023-06-16T17:49:10.962Z,30.08
2023-06-16T17:51:37.898Z,30.46
2023-06-16T17:54:05.233Z,31.18
2023-06-16T17:56:33.460Z,32.21
2023-06-16T17:59:02.454Z,32.20
2023-06-16T18:01:30.022Z,32.35
2023-06-16T18:03:57.908Z,34.41
2023-06-16T18:06:24.875Z,35.35
2023-06-16T18:08:51.918Z,35.65
2023-06-16T18:11:18.913Z,35.92
2023-06-16T18:13:46.110Z,36.15
2023-06-16T18:16:14.836Z,36.33
2023-06-16T18:18:41.781Z,36.49
2023-06-16T18:21:09.031Z,36.59
2023-06-16T18:23:35.954Z,36.86
2023-06-16T18:26:03.460Z,36.46
2023-06-16T18:28:30.423Z,37.50
2023-06-16T18:30:58.950Z,37.17
2023-06-16T18:33:27.409Z,36.93
2023-06-16T18:35:54.429Z,37.03
2023-06-16T18:38:21.354Z,37.31
2023-06-16T18:40:48.394Z,39.12
2023-06-16T18:43:16.408Z,38.10
2023-06-16T18:45:43.315Z,37.56
2023-06-16T18:48:10.556Z,38.07
2023-06-16T18:50:38.848Z,38.00
2023-06-16T18:53:05.809Z,38.14
2023-06-16T18:55:32.790Z,38.45
2023-06-16T18:57:59.977Z,38.68
2023-06-16T19:00:26.906Z,38.71
2023-06-16T19:02:54.195Z,39.08
2023-06-16T19:05:21.383Z,39.80
2023-06-16T19:08:01.144Z,40.63
2023-06-16T19:10:28.298Z,41.29
2023-06-16T19:12:55.313Z,40.43
2023-06-16T19:15:22.223Z,41.43
2023-06-16T19:17:49.460Z,41.00
2023-06-16T19:20:16.760Z,40.90
2023-06-16T19:22:44.084Z,40.77
2023-06-16T19:25:12.457Z,41.81
2023-06-16T19:27:39.769Z,41.94
2023-06-16T19:30:07.853Z,42.08
2023-06-16T19:33:27.161Z,41.36
2023-06-16T19:35:54.848Z,41.44
2023-06-16T19:38:24.164Z,42.00
2023-06-16T19:40:52.693Z,42.53
2023-06-16T19:43:20.169Z,42.45
2023-06-16T19:45:47.152Z,43.21
2023-06-16T19:48:14.219Z,43.20
2023-06-16T19:50:41.363Z,47.38
2023-06-16T19:53:08.390Z,49.18
2023-06-16T19:55:45.213Z,52.00
2023-06-16T19:58:20.309Z,53.58
2023-06-16T20:00:49.742Z,54.08
2023-06-16T20:03:16.703Z,53.64
2023-06-16T20:05:44.381Z,53.85
2023-06-16T20:08:11.368Z,53.87
2023-06-16T20:10:38.253Z,54.52
2023-06-16T20:13:05.297Z,54.11
2023-06-16T20:15:33.608Z,56.04
2023-06-16T20:18:00.686Z,56.52
2023-06-16T20:20:28.342Z,57.50
2023-06-16T20:22:56.118Z,57.11
2023-06-16T20:25:23.279Z,56.49
2023-06-16T20:27:53.634Z,57.17
2023-06-16T20:30:21.185Z,57.29
2023-06-16T20:32:50.969Z,58.71
2023-06-16T20:35:20.768Z,58.71
2023-06-16T20:37:48.099Z,59.46
2023-06-16T20:40:15.057Z,59.19
2023-06-16T20:42:42.370Z,58.63
2023-06-16T20:45:10.580Z,57.39
2023-06-16T20:47:38.257Z,56.23
2023-06-16T20:50:09.461Z,57.28
2023-06-16T20:52:36.362Z,57.02
2023-06-16T20:55:06.621Z,57.02
2023-06-16T20:57:33.496Z,58.67
2023-06-16T21:00:00.611Z,59.31
2023-06-16T21:02:27.567Z,60.00
2023-06-16T21:04:57.673Z,59.84
2023-06-16T21:07:26.108Z,59.67
2023-06-16T21:09:52.989Z,59.30
2023-06-16T21:12:21.223Z,57.13
2023-06-16T21:14:48.195Z,57.77
2023-06-16T21:17:15.168Z,58.78
2023-06-16T21:19:46.579Z,60.21
2023-06-16T21:22:14.889Z,60.74
2023-06-16T21:24:43.161Z,61.58
2023-06-16T21:27:10.456Z,61.36
2023-06-16T21:29:37.551Z,61.37
2023-06-16T21:32:05.250Z,61.82
2023-06-16T21:34:32.151Z,62.06
2023-06-16T21:36:59.708Z,60.65
2023-06-16T21:39:26.919Z,62.31
2023-06-16T21:41:55.210Z,62.15
2023-06-16T21:44:22.139Z,62.24
2023-06-16T21:46:49.359Z,62.87
2023-06-16T21:49:16.349Z,63.19
2023-06-16T21:51:43.322Z,63.80
2023-06-16T21:54:10.182Z,66.30
2023-06-16T21:56:37.263Z,65.56
2023-06-16T21:59:05.578Z,62.54
2023-06-16T22:01:33.956Z,64.03
2023-06-16T22:04:01.216Z,65.57
2023-06-16T22:06:28.360Z,65.08
2023-06-16T22:08:55.353Z,64.80
2023-06-16T22:11:22.370Z,64.43
2023-06-16T22:13:49.254Z,64.93
2023-06-16T22:16:17.809Z,65.39
2023-06-16T22:18:44.927Z,65.85
2023-06-16T22:21:12.100Z,64.85
2023-06-16T22:23:39.027Z,64.21
2023-06-16T22:26:05.963Z,64.89
2023-06-16T22:28:33.333Z,65.24
2023-06-16T22:31:02.955Z,66.17
2023-06-16T22:33:31.609Z,66.08
2023-06-16T22:35:59.901Z,65.66
2023-06-16T22:38:26.798Z,64.85
2023-06-16T22:40:53.713Z,64.65
2023-06-16T22:43:20.655Z,65.42
2023-06-16T22:45:47.680Z,65.56
2023-06-16T22:48:14.810Z,65.63
2023-06-16T22:50:43.571Z,66.42
2023-06-16T22:53:10.402Z,66.79
2023-06-16T22:55:37.520Z,67.54
2023-06-16T22:58:04.420Z,67.20
2023-06-16T23:00:31.485Z,65.32
2023-06-16T23:02:58.499Z,63.57
2023-06-16T23:05:25.554Z,64.17
2023-06-16T23:07:53.916Z,63.97
2023-06-16T23:10:21.584Z,62.68
2023-06-16T23:12:48.685Z,65.86
2023-06-16T23:15:15.575Z,66.62
2023-06-16T23:17:42.635Z,65.78
2023-06-16T23:20:11.669Z,66.07
2023-06-16T23:22:38.607Z,66.05
2023-06-16T23:25:09.668Z,65.44
2023-06-16T23:27:36.628Z,65.01
2023-06-16T23:30:04.415Z,63.82
2023-06-16T23:32:31.835Z,63.64
2023-06-16T23:35:01.406Z,63.99
2023-06-16T23:37:28.740Z,63.73
2023-06-16T23:39:55.717Z,62.92
2023-06-16T23:42:24.145Z,64.16
2023-06-16T23:44:51.414Z,64.66
2023-06-16T23:47:18.408Z,64.18
2023-06-16T23:49:45.302Z,64.65
2023-06-16T23:52:12.170Z,65.42
2023-06-16T23:54:47.456Z,63.33
2023-06-16T23:57:18.566Z,63.32
2023-06-16T23:59:47.262Z,63.70
